Time,TemperatureF,DewpointF,PressureIn,WindDirection,WindDirectionDegrees,WindSpeedMPH,WindSpeedGustMPH,Humidity,HourlyPrecipIn,Conditions,Clouds,dailyrainin,SoftwareType,DateUTC
2013-02-07 00:00:00,33.3,30.4,29.96,NW,309,2.0,2.0,89,0.00,,,0.00,WeatherCatV1.10B1784,2013-02-07 06:00:00,
2013-02-07 00:05:00,33.1,30.2,29.96,NW,309,1.0,2.0,89,0.00,,,0.00,WeatherCatV1.10B1784,2013-02-07 06:05:00,
2013-02-07 00:10:00,32.8,29.9,29.96,NW,311,2.0,3.0,89,0.00,,,0.00,WeatherCatV1.10B1784,2013-02-07 06:10:00,
2013-02-07 00:15:00,32.6,30.0,29.96,NW,311,1.0,3.0,90,0.00,,,0.00,WeatherCatV1.10B1784,2013-02-07 06:15:00,
2013-02-07 00:20:00,32.5,29.9,29.97,NW,311,1.0,5.0,90,0.00,,,0.00,WeatherCatV1.10B1784,2013-02-07 06:20:00,
2013-02-07 00:25:00,32.3,29.7,29.97,NW,322,1.0,1.0,90,0.00,,,0.00,WeatherCatV1.10B1784,2013-02-07 06:25:00,
2013-02-07 00:30:00,32.1,29.5,29.97,NW,321,1.0,2.0,90,0.00,,,0.00,WeatherCatV1.10B1784,2013-02-07 06:30:00,
2013-02-07 00:35:00,31.9,29.3,29.97,NW,320,0.0,4.0,90,0.00,,,0.00,WeatherCatV1.10B1784,2013-02-07 06:35:00,
2013-02-07 00:40:00,31.7,29.4,29.97,NW,324,1.0,3.0,91,0.00,,,0.00,WeatherCatV1.10B1784,2013-02-07 06:40:00,
2013-02-07 00:45:00,31.6,29.3,29.98,NW,324,0.0,3.0,91,0.00,,,0.00,WeatherCatV1.10B1784,2013-02-07 06:45:00,
2013-02-07 00:50:00,31.6,29.3,29.98,NW,324,0.0,2.0,91,0.00,,,0.00,WeatherCatV1.10B1784,2013-02-07 06:50:00,
2013-02-07 00:53:00,31.6,29.3,29.98,NNW,330,0.0,4.0,91,0.00,,,0.00,WeatherCatV1.10B1784,2013-02-07 06:53:00,
2013-02-07 00:58:00,31.5,29.2,29.98,NW,318,0.0,2.0,91,0.00,,,0.00,WeatherCatV1.10B1784,2013-02-07 06:58:00,
2013-02-07 01:03:00,31.4,29.1,29.98,NW,324,1.0,2.0,91,0.00,,,0.00,WeatherCatV1.10B1784,2013-02-07 07:03:00,
2013-02-07 01:08:00,31.4,29.1,29.98,NW,326,1.0,4.0,91,0.00,,,0.00,WeatherCatV1.10B1784,2013-02-07 07:08:00,
2013-02-07 01:13:00,31.3,29.0,29.98,NNW,328,1.0,1.0,91,0.00,,,0.00,WeatherCatV1.10B1784,2013-02-07 07:13:00,
2013-02-07 01:18:00,31.2,29.2,29.98,WNW,294,2.0,3.0,92,0.00,,,0.00,WeatherCatV1.10B1784,2013-02-07 07:18:00,
2013-02-07 01:23:00,31.2,28.9,29.98,WNW,294,1.0,2.0,91,0.00,,,0.00,WeatherCatV1.10B1784,2013-02-07 07:23:00,
2013-02-07 01:28:00,31.2,29.2,29.98,WNW,296,0.0,2.0,92,0.00,,,0.00,WeatherCatV1.10B1784,2013-02-07 07:28:00,
2013-02-07 01:33:00,31.1,29.1,29.98,WNW,296,2.0,4.0,92,0.00,,,0.00,WeatherCatV1.10B1784,2013-02-07 07:33:00,
2013-02-07 01:38:00,31.1,29.1,29.98,NW,311,1.0,4.0,92,0.00,,,0.00,WeatherCatV1.10B1784,2013-02-07 07:38:00,
2013-02-07 01:43:00,31.1,29.1,29.98,NNW,329,2.0,5.0,92,0.00,,,0.00,WeatherCatV1.10B1784,2013-02-07 07:43:00,
2013-02-07 01:48:00,31.1,29.1,29.98,NW,304,3.0,5.0,92,0.00,,,0.00,WeatherCatV1.10B1784,2013-02-07 07:48:00,
2013-02-07 01:53:00,31.1,29.1,29.98,NW,314,5.0,5.0,92,0.00,,,0.00,WeatherCatV1.10B1784,2013-02-07 07:53:00,
2013-02-07 01:58:00,31.0,29.0,29.98,NNW,342,3.0,5.0,92,0.00,,,0.00,WeatherCatV1.10B1784,2013-02-07 07:58:00,
2013-02-07 02:03:00,30.9,28.9,29.99,NW,313,1.0,6.0,92,0.00,,,0.00,WeatherCatV1.10B1784,2013-02-07 08:03:00,
2013-02-07 02:08:00,30.6,28.6,29.99,WNW,303,8.0,8.0,92,0.00,,,0.00,WeatherCatV1.10B1784,2013-02-07 08:08:00,
2013-02-07 02:13:00,30.1,28.1,30.00,NNW,339,1.0,7.0,92,0.00,,,0.00,WeatherCatV1.10B1784,2013-02-07 08:13:00,
2013-02-07 02:18:00,29.8,28.0,30.00,NW,310,4.0,7.0,93,0.00,,,0.00,WeatherCatV1.10B1784,2013-02-07 08:18:00,
2013-02-07 02:23:00,29.5,27.7,30.00,NNW,328,2.0,6.0,93,0.00,,,0.00,WeatherCatV1.10B1784,2013-02-07 08:23:00,
2013-02-07 02:28:00,29.3,27.8,30.00,NW,310,4.0,7.0,94,0.00,,,0.00,WeatherCatV1.10B1784,2013-02-07 08:28:00,
2013-02-07 02:33:00,29.2,27.7,30.01,NNW,341,3.0,5.0,94,0.00,,,0.00,WeatherCatV1.10B1784,2013-02-07 08:33:00,
2013-02-07 02:38:00,28.9,27.4,30.01,NNW,342,2.0,7.0,94,0.00,,,0.00,WeatherCatV1.10B1784,2013-02-07 08:38:00,
2013-02-07 02:43:00,28.8,27.3,30.01,NW,318,3.0,4.0,94,0.00,,,0.00,WeatherCatV1.10B1784,2013-02-07 08:43:00,
2013-02-07 02:48:00,28.7,27.5,30.01,NW,312,3.0,5.0,95,0.00,,,0.00,WeatherCatV1.10B1784,2013-02-07 08:48:00,
2013-02-07 02:53:00,28.6,27.4,30.00,NW,312,3.0,6.0,95,0.00,,,0.00,WeatherCatV1.10B1784,2013-02-07 08:53:00,
2013-02-07 02:58:00,28.6,27.4,30.00,NW,321,3.0,5.0,95,0.00,,,0.00,WeatherCatV1.10B1784,2013-02-07 08:58:00,
2013-02-07 03:03:00,28.4,27.2,30.01,NNW,343,1.0,3.0,95,0.00,,,0.00,WeatherCatV1.10B1784,2013-02-07 09:03:00,
2013-02-07 03:08:00,28.3,27.1,30.01,NNW,329,2.0,7.0,95,0.00,,,0.00,WeatherCatV1.10B1784,2013-02-07 09:08:00,
2013-02-07 03:13:00,28.2,27.0,30.01,NW,325,0.0,7.0,95,0.00,,,0.00,WeatherCatV1.10B1784,2013-02-07 09:13:00,
2013-02-07 03:18:00,28.2,27.0,30.01,NW,320,3.0,6.0,95,0.00,,,0.00,WeatherCatV1.10B1784,2013-02-07 09:18:00,
2013-02-07 03:23:00,28.2,27.0,30.00,NNE,20,1.0,7.0,95,0.00,,,0.00,WeatherCatV1.10B1784,2013-02-07 09:23:00,
2013-02-07 03:28:00,28.2,27.0,30.01,WNW,302,5.0,6.0,95,0.00,,,0.00,WeatherCatV1.10B1784,2013-02-07 09:28:00,
2013-02-07 03:33:00,28.2,27.0,30.01,NE,51,2.0,3.0,95,0.00,,,0.00,WeatherCatV1.10B1784,2013-02-07 09:33:00,
2013-02-07 03:38:00,28.3,27.1,30.01,NNW,341,3.0,8.0,95,0.00,,,0.00,WeatherCatV1.10B1784,2013-02-07 09:38:00,
2013-02-07 03:43:00,28.3,27.1,30.01,West,260,1.0,6.0,95,0.00,,,0.00,WeatherCatV1.10B1784,2013-02-07 09:43:00,
2013-02-07 03:48:00,28.4,27.2,30.02,NW,322,2.0,3.0,95,0.00,,,0.00,WeatherCatV1.10B1784,2013-02-07 09:48:00,
2013-02-07 03:53:00,28.4,27.2,30.02,NW,311,3.0,5.0,95,0.00,,,0.00,WeatherCatV1.10B1784,2013-02-07 09:53:00,
2013-02-07 03:58:00,28.4,27.2,30.02,WNW,296,3.0,8.0,95,0.00,,,0.00,WeatherCatV1.10B1784,2013-02-07 09:58:00,
2013-02-07 04:03:00,28.4,27.2,30.02,NW,326,1.0,4.0,95,0.00,,,0.00,WeatherCatV1.10B1784,2013-02-07 10:03:00,
2013-02-07 04:08:00,28.4,27.2,30.02,North,5,2.0,4.0,95,0.00,,,0.00,WeatherCatV1.10B1784,2013-02-07 10:08:00,
2013-02-07 04:13:00,28.5,27.3,30.02,NW,305,1.0,5.0,95,0.00,,,0.00,WeatherCatV1.10B1784,2013-02-07 10:13:00,
2013-02-07 04:18:00,28.5,27.3,30.02,NW,326,1.0,3.0,95,0.00,,,0.00,WeatherCatV1.10B1784,2013-02-07 10:18:00,
2013-02-07 04:23:00,28.5,27.3,30.03,NW,324,1.0,3.0,95,0.00,,,0.00,WeatherCatV1.10B1784,2013-02-07 10:23:00,
2013-02-07 04:28:00,28.6,27.4,30.03,North,349,0.0,3.0,95,0.00,,,0.00,WeatherCatV1.10B1784,2013-02-07 10:28:00,
2013-02-07 04:33:00,28.6,27.4,30.03,NW,320,6.0,6.0,95,0.00,,,0.00,WeatherCatV1.10B1784,2013-02-07 10:33:00,
2013-02-07 04:38:00,28.6,27.4,30.03,North,5,3.0,5.0,95,0.00,,,0.00,WeatherCatV1.10B1784,2013-02-07 10:38:00,
2013-02-07 04:43:00,28.5,27.3,30.03,WNW,298,0.0,10.0,95,0.00,,,0.00,WeatherCatV1.10B1784,2013-02-07 10:43:00,
2013-02-07 04:48:00,28.5,27.3,30.03,NNW,342,2.0,7.0,95,0.00,,,0.00,WeatherCatV1.10B1784,2013-02-07 10:48:00,
2013-02-07 04:53:00,28.4,27.2,30.03,NNW,345,2.0,7.0,95,0.00,,,0.00,WeatherCatV1.10B1784,2013-02-07 10:53:00,
2013-02-07 04:58:00,28.2,26.7,30.03,North,0,4.0,8.0,94,0.00,,,0.00,WeatherCatV1.10B1784,2013-02-07 10:58:00,
2013-02-07 05:03:00,28.1,26.6,30.03,NW,307,4.0,4.0,94,0.00,,,0.00,WeatherCatV1.10B1784,2013-02-07 11:03:00,
2013-02-07 05:08:00,28.1,26.6,30.03,NW,317,1.0,6.0,94,0.00,,,0.00,WeatherCatV1.10B1784,2013-02-07 11:08:00,
2013-02-07 05:13:00,28.0,26.2,30.03,NE,35,7.0,7.0,93,0.00,,,0.00,WeatherCatV1.10B1784,2013-02-07 11:13:00,
2013-02-07 05:18:00,27.9,26.1,30.04,NW,316,2.0,7.0,93,0.00,,,0.00,WeatherCatV1.10B1784,2013-02-07 11:18:00,
2013-02-07 05:23:00,27.9,26.1,30.04,NNE,18,6.0,6.0,93,0.00,,,0.00,WeatherCatV1.10B1784,2013-02-07 11:23:00,
2013-02-07 05:28:00,27.9,25.9,30.04,NNW,341,2.0,6.0,92,0.00,,,0.00,WeatherCatV1.10B1784,2013-02-07 11:28:00,
2013-02-07 05:33:00,27.8,25.8,30.05,NNW,341,2.0,4.0,92,0.00,,,0.00,WeatherCatV1.10B1784,2013-02-07 11:33:00,
2013-02-07 05:38:00,27.8,25.8,30.05,WNW,302,2.0,3.0,92,0.00,,,0.00,WeatherCatV1.10B1784,2013-02-07 11:38:00,
2013-02-07 05:43:00,27.8,25.8,30.05,NNW,331,2.0,3.0,92,0.00,,,0.00,WeatherCatV1.10B1784,2013-02-07 11:43:00,
2013-02-07 05:48:00,27.7,25.7,30.05,North,353,3.0,5.0,92,0.00,,,0.00,WeatherCatV1.10B1784,2013-02-07 11:48:00,
2013-02-07 05:53:00,27.6,25.6,30.04,NNW,328,2.0,4.0,92,0.00,,,0.00,WeatherCatV1.10B1784,2013-02-07 11:53:00,
2013-02-07 05:58:00,27.6,25.6,30.04,NNW,334,2.0,3.0,92,0.00,,,0.00,WeatherCatV1.10B1784,2013-02-07 11:58:00,
2013-02-07 06:03:00,27.6,25.6,30.04,NNW,328,2.0,3.0,92,0.00,,,0.00,WeatherCatV1.10B1784,2013-02-07 12:03:00,
2013-02-07 06:08:00,27.6,25.6,30.03,NW,326,0.0,2.0,92,0.00,,,0.00,WeatherCatV1.10B1784,2013-02-07 12:08:00,
2013-02-07 06:13:00,27.5,25.5,30.04,North,5,3.0,5.0,92,0.00,,,0.00,WeatherCatV1.10B1784,2013-02-07 12:13:00,
2013-02-07 06:18:00,27.5,25.5,30.03,NW,306,2.0,7.0,92,0.00,,,0.00,WeatherCatV1.10B1784,2013-02-07 12:18:00,
2013-02-07 06:23:00,27.5,25.5,30.04,NNW,328,2.0,4.0,92,0.00,,,0.00,WeatherCatV1.10B1784,2013-02-07 12:23:00,
2013-02-07 06:28:00,27.4,25.4,30.05,NW,311,0.0,3.0,92,0.00,,,0.00,WeatherCatV1.10B1784,2013-02-07 12:28:00,
2013-02-07 06:33:00,27.4,25.4,30.07,NNW,330,2.0,6.0,92,0.00,,,0.00,WeatherCatV1.10B1784,2013-02-07 12:33:00,
2013-02-07 06:38:00,27.4,25.4,30.06,NNW,338,2.0,4.0,92,0.00,,,0.00,WeatherCatV1.10B1784,2013-02-07 12:38:00,
2013-02-07 06:43:00,27.3,25.5,30.07,NW,309,1.0,5.0,93,0.00,,,0.00,WeatherCatV1.10B1784,2013-02-07 12:43:00,
2013-02-07 06:48:00,27.2,25.5,30.07,NW,316,3.0,4.0,93,0.00,,,0.00,WeatherCatV1.10B1784,2013-02-07 12:48:00,
2013-02-07 06:53:00,27.2,25.5,30.06,NNW,328,2.0,5.0,93,0.00,,,0.00,WeatherCatV1.10B1784,2013-02-07 12:53:00,
2013-02-07 06:58:00,27.2,25.5,30.06,North,5,4.0,4.0,93,0.00,,,0.00,WeatherCatV1.10B1784,2013-02-07 12:58:00,
2013-02-07 07:03:00,27.1,25.4,30.06,NW,305,2.0,6.0,93,0.00,,,0.00,WeatherCatV1.10B1784,2013-02-07 13:03:00,
2013-02-07 07:08:00,27.1,25.4,30.06,NW,324,2.0,5.0,93,0.00,,,0.00,WeatherCatV1.10B1784,2013-02-07 13:08:00,
2013-02-07 07:13:00,27.0,25.3,30.06,WNW,299,4.0,5.0,93,0.00,,,0.00,WeatherCatV1.10B1784,2013-02-07 13:13:00,
2013-02-07 07:18:00,26.9,25.2,30.06,NW,322,2.0,6.0,93,0.00,,,0.00,WeatherCatV1.10B1784,2013-02-07 13:18:00,
2013-02-07 07:23:00,26.8,25.1,30.07,North,0,4.0,5.0,93,0.00,,,0.00,WeatherCatV1.10B1784,2013-02-07 13:23:00,
2013-02-07 07:28:00,26.7,25.0,30.07,NNW,330,3.0,4.0,93,0.00,,,0.00,WeatherCatV1.10B1784,2013-02-07 13:28:00,
2013-02-07 07:33:00,26.6,24.9,30.07,NNE,24,1.0,4.0,93,0.00,,,0.00,WeatherCatV1.10B1784,2013-02-07 13:33:00,
2013-02-07 07:38:00,26.5,24.8,30.08,WNW,295,5.0,5.0,93,0.00,,,0.00,WeatherCatV1.10B1784,2013-02-07 13:38:00,
2013-02-07 07:43:00,26.5,24.8,30.08,NW,315,2.0,3.0,93,0.00,,,0.00,WeatherCatV1.10B1784,2013-02-07 13:43:00,
2013-02-07 07:48:00,26.5,24.8,30.09,NNW,327,6.0,7.0,93,0.00,,,0.00,WeatherCatV1.10B1784,2013-02-07 13:48:00,
2013-02-07 07:53:00,26.3,24.6,30.10,WNW,293,2.0,4.0,93,0.00,,,0.00,WeatherCatV1.10B1784,2013-02-07 13:53:00,
2013-02-07 07:58:00,26.3,24.6,30.10,NW,317,3.0,4.0,93,0.00,,,0.00,WeatherCatV1.10B1784,2013-02-07 13:58:00,
2013-02-07 08:03:00,26.3,24.6,30.10,NW,313,3.0,3.0,93,0.00,,,0.00,WeatherCatV1.10B1784,2013-02-07 14:03:00,
2013-02-07 08:08:00,26.2,24.5,30.10,NW,309,1.0,6.0,93,0.00,,,0.00,WeatherCatV1.10B1784,2013-02-07 14:08:00,
2013-02-07 08:13:00,26.1,24.4,30.10,North,0,2.0,4.0,93,0.00,,,0.00,WeatherCatV1.10B1784,2013-02-07 14:13:00,
2013-02-07 08:18:00,26.0,24.3,30.11,NW,316,1.0,2.0,93,0.00,,,0.00,WeatherCatV1.10B1784,2013-02-07 14:18:00,
2013-02-07 08:23:00,26.0,24.3,30.11,NW,305,4.0,8.0,93,0.00,,,0.00,WeatherCatV1.10B1784,2013-02-07 14:23:00,
2013-02-07 08:28:00,26.0,24.3,30.10,NW,318,4.0,5.0,93,0.00,,,0.00,WeatherCatV1.10B1784,2013-02-07 14:28:00,
2013-02-07 08:33:00,25.9,24.2,30.11,NW,305,0.0,3.0,93,0.00,,,0.00,WeatherCatV1.10B1784,2013-02-07 14:33:00,
2013-02-07 08:38:00,25.9,24.2,30.12,West,271,2.0,8.0,93,0.00,,,0.00,WeatherCatV1.10B1784,2013-02-07 14:38:00,
2013-02-07 08:43:00,26.0,24.3,30.12,NW,313,6.0,6.0,93,0.00,,,0.00,WeatherCatV1.10B1784,2013-02-07 14:43:00,
2013-02-07 08:48:00,26.0,24.3,30.12,North,353,1.0,5.0,93,0.00,,,0.00,WeatherCatV1.10B1784,2013-02-07 14:48:00,
2013-02-07 08:53:00,26.1,24.4,30.12,NW,324,3.0,8.0,93,0.00,,,0.00,WeatherCatV1.10B1784,2013-02-07 14:53:00,
2013-02-07 08:58:00,26.2,24.5,30.12,NW,322,2.0,6.0,93,0.00,,,0.00,WeatherCatV1.10B1784,2013-02-07 14:58:00,
2013-02-07 09:03:00,26.2,24.5,30.12,North,10,1.0,4.0,93,0.00,,,0.00,WeatherCatV1.10B1784,2013-02-07 15:03:00,
2013-02-07 09:08:00,26.2,24.2,30.12,WNW,286,5.0,5.0,92,0.00,,,0.00,WeatherCatV1.10B1784,2013-02-07 15:08:00,
2013-02-07 09:13:00,26.2,24.2,30.13,North,10,5.0,6.0,92,0.00,,,0.00,WeatherCatV1.10B1784,2013-02-07 15:13:00,
2013-02-07 09:18:00,26.2,24.2,30.14,WNW,298,2.0,5.0,92,0.00,,,0.00,WeatherCatV1.10B1784,2013-02-07 15:18:00,
2013-02-07 09:23:00,26.1,24.1,30.14,NNE,19,3.0,6.0,92,0.00,,,0.00,WeatherCatV1.10B1784,2013-02-07 15:23:00,
2013-02-07 09:28:00,26.1,24.1,30.14,WNW,291,1.0,5.0,92,0.00,,,0.00,WeatherCatV1.10B1784,2013-02-07 15:28:00,
2013-02-07 09:33:00,26.0,24.0,30.14,NW,317,2.0,11.0,92,0.00,,,0.00,WeatherCatV1.10B1784,2013-02-07 15:33:00,
2013-02-07 09:38:00,26.0,24.0,30.14,WNW,301,4.0,5.0,92,0.00,,,0.00,WeatherCatV1.10B1784,2013-02-07 15:38:00,
2013-02-07 09:43:00,26.0,24.0,30.15,NW,311,1.0,4.0,92,0.00,,,0.00,WeatherCatV1.10B1784,2013-02-07 15:43:00,
2013-02-07 09:48:00,26.0,24.0,30.15,NNW,327,3.0,4.0,92,0.00,,,0.00,WeatherCatV1.10B1784,2013-02-07 15:48:00,
2013-02-07 09:53:00,25.9,23.9,30.15,NW,316,3.0,5.0,92,0.00,,,0.00,WeatherCatV1.10B1784,2013-02-07 15:53:00,
2013-02-07 09:58:00,25.9,23.9,30.15,WNW,303,3.0,6.0,92,0.00,,,0.00,WeatherCatV1.10B1784,2013-02-07 15:58:00,
2013-02-07 10:03:00,25.8,23.8,30.15,NW,310,2.0,7.0,92,0.00,,,0.00,WeatherCatV1.10B1784,2013-02-07 16:03:00,
2013-02-07 10:08:00,25.8,23.8,30.16,NW,307,2.0,7.0,92,0.00,,,0.00,WeatherCatV1.10B1784,2013-02-07 16:08:00,
2013-02-07 10:13:00,25.8,23.8,30.16,NW,308,3.0,5.0,92,0.00,,,0.00,WeatherCatV1.10B1784,2013-02-07 16:13:00,
2013-02-07 10:18:00,25.8,23.8,30.16,NNW,327,1.0,3.0,92,0.00,,,0.00,WeatherCatV1.10B1784,2013-02-07 16:18:00,
2013-02-07 10:23:00,25.8,23.8,30.16,West,280,4.0,8.0,92,0.00,,,0.00,WeatherCatV1.10B1784,2013-02-07 16:23:00,
2013-02-07 10:28:00,25.8,23.8,30.16,NW,305,2.0,8.0,92,0.00,,,0.00,WeatherCatV1.10B1784,2013-02-07 16:28:00,
2013-02-07 10:33:00,26.0,24.0,30.16,NW,313,3.0,6.0,92,0.00,,,0.00,WeatherCatV1.10B1784,2013-02-07 16:33:00,
2013-02-07 10:38:00,26.1,23.8,30.16,NW,314,3.0,5.0,91,0.00,,,0.00,WeatherCatV1.10B1784,2013-02-07 16:38:00,
2013-02-07 10:43:00,26.1,23.8,30.16,WNW,295,2.0,6.0,91,0.00,,,0.00,WeatherCatV1.10B1784,2013-02-07 16:43:00,
2013-02-07 10:48:00,26.1,24.1,30.16,WNW,295,1.0,2.0,92,0.00,,,0.00,WeatherCatV1.10B1784,2013-02-07 16:48:00,
2013-02-07 10:53:00,26.1,23.8,30.16,WNW,289,1.0,6.0,91,0.00,,,0.00,WeatherCatV1.10B1784,2013-02-07 16:53:00,
2013-02-07 10:58:00,26.1,23.8,30.17,WNW,297,3.0,5.0,91,0.00,,,0.00,WeatherCatV1.10B1784,2013-02-07 16:58:00,
2013-02-07 11:03:00,26.0,23.7,30.17,NW,305,4.0,8.0,91,0.00,,,0.00,WeatherCatV1.10B1784,2013-02-07 17:03:00,
2013-02-07 11:08:00,26.1,23.8,30.17,North,10,1.0,4.0,91,0.00,,,0.00,WeatherCatV1.10B1784,2013-02-07 17:08:00,
2013-02-07 11:13:00,26.2,23.9,30.17,NW,309,2.0,6.0,91,0.00,,,0.00,WeatherCatV1.10B1784,2013-02-07 17:13:00,
2013-02-07 11:18:00,26.3,23.8,30.17,NW,307,3.0,8.0,90,0.00,,,0.00,WeatherCatV1.10B1784,2013-02-07 17:18:00,
2013-02-07 11:23:00,26.6,24.3,30.17,NNW,329,1.0,3.0,91,0.00,,,0.00,WeatherCatV1.10B1784,2013-02-07 17:23:00,
2013-02-07 11:28:00,26.7,24.2,30.17,NNW,338,1.0,5.0,90,0.00,,,0.00,WeatherCatV1.10B1784,2013-02-07 17:28:00,
2013-02-07 11:33:00,27.0,24.5,30.17,WNW,289,0.0,3.0,90,0.00,,,0.00,WeatherCatV1.10B1784,2013-02-07 17:33:00,
2013-02-07 11:38:00,27.1,24.3,30.17,WNW,291,1.0,7.0,89,0.00,,,0.00,WeatherCatV1.10B1784,2013-02-07 17:38:00,
2013-02-07 11:43:00,27.3,24.5,30.17,North,5,3.0,5.0,89,0.00,,,0.00,WeatherCatV1.10B1784,2013-02-07 17:43:00,
2013-02-07 11:48:00,27.2,24.4,30.16,NW,319,3.0,7.0,89,0.00,,,0.00,WeatherCatV1.10B1784,2013-02-07 17:48:00,
2013-02-07 11:53:00,27.2,24.4,30.16,WNW,303,2.0,6.0,89,0.00,,,0.00,WeatherCatV1.10B1784,2013-02-07 17:53:00,
2013-02-07 11:58:00,27.4,24.6,30.16,NNE,15,2.0,5.0,89,0.00,,,0.00,WeatherCatV1.10B1784,2013-02-07 17:58:00,
2013-02-07 12:03:00,27.5,24.7,30.17,West,275,4.0,6.0,89,0.00,,,0.00,WeatherCatV1.10B1784,2013-02-07 18:03:00,
2013-02-07 12:08:00,27.4,24.6,30.16,NNW,333,3.0,5.0,89,0.00,,,0.00,WeatherCatV1.10B1784,2013-02-07 18:08:00,
2013-02-07 12:13:00,27.5,24.4,30.16,NW,315,1.0,6.0,88,0.00,,,0.00,WeatherCatV1.10B1784,2013-02-07 18:13:00,
2013-02-07 12:18:00,27.6,24.8,30.16,WNW,298,2.0,7.0,89,0.00,,,0.00,WeatherCatV1.10B1784,2013-02-07 18:18:00,
2013-02-07 12:23:00,27.7,24.6,30.16,WNW,286,3.0,5.0,88,0.00,,,0.00,WeatherCatV1.10B1784,2013-02-07 18:23:00,
2013-02-07 12:28:00,27.6,24.5,30.15,NW,324,2.0,3.0,88,0.00,,,0.00,WeatherCatV1.10B1784,2013-02-07 18:28:00,
2013-02-07 12:33:00,27.7,24.6,30.16,West,262,1.0,7.0,88,0.00,,,0.00,WeatherCatV1.10B1784,2013-02-07 18:33:00,
2013-02-07 12:38:00,27.7,24.6,30.16,NW,310,3.0,7.0,88,0.00,,,0.00,WeatherCatV1.10B1784,2013-02-07 18:38:00,
2013-02-07 12:43:00,27.7,24.6,30.16,WNW,298,2.0,5.0,88,0.00,,,0.00,WeatherCatV1.10B1784,2013-02-07 18:43:00,
2013-02-07 12:48:00,27.8,24.7,30.16,NNW,338,1.0,4.0,88,0.00,,,0.00,WeatherCatV1.10B1784,2013-02-07 18:48:00,
2013-02-07 12:53:00,27.8,24.7,30.16,North,355,5.0,8.0,88,0.00,,,0.00,WeatherCatV1.10B1784,2013-02-07 18:53:00,
2013-02-07 12:58:00,27.8,24.7,30.16,WNW,297,6.0,7.0,88,0.00,,,0.00,WeatherCatV1.10B1784,2013-02-07 18:58:00,
2013-02-07 13:03:00,27.8,24.4,30.16,NNW,343,5.0,8.0,87,0.00,,,0.00,WeatherCatV1.10B1784,2013-02-07 19:03:00,
2013-02-07 13:08:00,27.8,24.2,30.16,NNW,338,4.0,10.0,86,0.00,,,0.00,WeatherCatV1.10B1784,2013-02-07 19:08:00,
2013-02-07 13:13:00,28.1,24.5,30.16,NW,314,4.0,5.0,86,0.00,,,0.00,WeatherCatV1.10B1784,2013-02-07 19:13:00,
2013-02-07 13:18:00,28.2,24.6,30.16,WNW,298,7.0,7.0,86,0.00,,,0.00,WeatherCatV1.10B1784,2013-02-07 19:18:00,
2013-02-07 13:23:00,28.0,24.4,30.16,NW,311,3.0,6.0,86,0.00,,,0.00,WeatherCatV1.10B1784,2013-02-07 19:23:00,
2013-02-07 13:28:00,28.1,24.7,30.15,NW,305,4.0,8.0,87,0.00,,,0.00,WeatherCatV1.10B1784,2013-02-07 19:28:00,
2013-02-07 13:33:00,28.0,24.6,30.15,North,10,0.0,7.0,87,0.00,,,0.00,WeatherCatV1.10B1784,2013-02-07 19:33:00,
2013-02-07 13:38:00,28.1,24.5,30.15,NW,306,6.0,7.0,86,0.00,,,0.00,WeatherCatV1.10B1784,2013-02-07 19:38:00,
2013-02-07 13:43:00,27.9,24.3,30.16,WNW,282,4.0,7.0,86,0.00,,,0.00,WeatherCatV1.10B1784,2013-02-07 19:43:00,
2013-02-07 13:48:00,27.9,24.3,30.16,NW,314,5.0,8.0,86,0.00,,,0.00,WeatherCatV1.10B1784,2013-02-07 19:48:00,
2013-02-07 13:53:00,27.9,24.3,30.16,NW,325,2.0,8.0,86,0.00,,,0.00,WeatherCatV1.10B1784,2013-02-07 19:53:00,
2013-02-07 13:58:00,27.9,24.3,30.16,North,349,5.0,8.0,86,0.00,,,0.00,WeatherCatV1.10B1784,2013-02-07 19:58:00,
2013-02-07 14:03:00,27.9,24.3,30.16,WNW,303,1.0,6.0,86,0.00,,,0.00,WeatherCatV1.10B1784,2013-02-07 20:03:00,
2013-02-07 14:08:00,28.1,24.5,30.16,NNW,331,2.0,6.0,86,0.00,,,0.00,WeatherCatV1.10B1784,2013-02-07 20:08:00,
2013-02-07 14:13:00,28.2,24.6,30.15,NW,314,1.0,7.0,86,0.00,,,0.00,WeatherCatV1.10B1784,2013-02-07 20:13:00,
2013-02-07 14:18:00,28.2,24.6,30.16,NW,312,2.0,6.0,86,0.00,,,0.00,WeatherCatV1.10B1784,2013-02-07 20:18:00,
2013-02-07 14:23:00,28.4,24.5,30.16,NW,322,2.0,8.0,85,0.00,,,0.00,WeatherCatV1.10B1784,2013-02-07 20:23:00,
2013-02-07 14:28:00,28.5,24.6,30.15,NW,307,4.0,6.0,85,0.00,,,0.00,WeatherCatV1.10B1784,2013-02-07 20:28:00,
2013-02-07 14:33:00,28.3,24.4,30.16,WNW,301,5.0,6.0,85,0.00,,,0.00,WeatherCatV1.10B1784,2013-02-07 20:33:00,
2013-02-07 14:38:00,28.3,24.4,30.16,NW,315,6.0,6.0,85,0.00,,,0.00,WeatherCatV1.10B1784,2013-02-07 20:38:00,
2013-02-07 14:43:00,28.3,24.4,30.16,NW,313,3.0,5.0,85,0.00,,,0.00,WeatherCatV1.10B1784,2013-02-07 20:43:00,
2013-02-07 14:48:00,28.2,24.3,30.16,NW,324,6.0,7.0,85,0.00,,,0.00,WeatherCatV1.10B1784,2013-02-07 20:48:00,
2013-02-07 14:53:00,28.2,24.3,30.16,North,0,2.0,8.0,85,0.00,,,0.00,WeatherCatV1.10B1784,2013-02-07 20:53:00,
2013-02-07 14:58:00,28.2,24.6,30.17,NNW,343,7.0,7.0,86,0.00,,,0.00,WeatherCatV1.10B1784,2013-02-07 20:58:00,
2013-02-07 15:03:00,28.1,24.2,30.17,NNW,328,5.0,5.0,85,0.00,,,0.00,WeatherCatV1.10B1784,2013-02-07 21:03:00,
2013-02-07 15:08:00,28.1,24.2,30.17,NNW,339,4.0,4.0,85,0.00,,,0.00,WeatherCatV1.10B1784,2013-02-07 21:08:00,
2013-02-07 15:13:00,28.2,24.3,30.17,NW,308,2.0,5.0,85,0.00,,,0.00,WeatherCatV1.10B1784,2013-02-07 21:13:00,
2013-02-07 15:18:00,28.3,24.4,30.17,NW,311,3.0,6.0,85,0.00,,,0.00,WeatherCatV1.10B1784,2013-02-07 21:18:00,
2013-02-07 15:23:00,28.3,24.4,30.17,NW,316,2.0,9.0,85,0.00,,,0.00,WeatherCatV1.10B1784,2013-02-07 21:23:00,
2013-02-07 15:28:00,28.3,24.7,30.17,NW,316,3.0,4.0,86,0.00,,,0.00,WeatherCatV1.10B1784,2013-02-07 21:28:00,
2013-02-07 15:33:00,28.3,24.4,30.17,NW,316,1.0,7.0,85,0.00,,,0.00,WeatherCatV1.10B1784,2013-02-07 21:33:00,
2013-02-07 15:38:00,28.3,24.7,30.18,North,349,5.0,5.0,86,0.00,,,0.00,WeatherCatV1.10B1784,2013-02-07 21:38:00,
2013-02-07 15:43:00,28.3,24.7,30.18,NW,309,4.0,5.0,86,0.00,,,0.00,WeatherCatV1.10B1784,2013-02-07 21:43:00,
2013-02-07 15:48:00,28.3,24.4,30.18,NNW,342,2.0,7.0,85,0.00,,,0.00,WeatherCatV1.10B1784,2013-02-07 21:48:00,
2013-02-07 15:53:00,28.3,24.7,30.18,NW,318,4.0,4.0,86,0.00,,,0.00,WeatherCatV1.10B1784,2013-02-07 21:53:00,
2013-02-07 15:58:00,28.2,24.3,30.19,WNW,287,3.0,7.0,85,0.00,,,0.00,WeatherCatV1.10B1784,2013-02-07 21:58:00,
2013-02-07 16:03:00,28.1,24.5,30.18,WNW,294,2.0,6.0,86,0.00,,,0.00,WeatherCatV1.10B1784,2013-02-07 22:03:00,
2013-02-07 16:08:00,28.0,24.4,30.19,NNW,338,2.0,4.0,86,0.00,,,0.00,WeatherCatV1.10B1784,2013-02-07 22:08:00,
2013-02-07 16:13:00,28.0,24.4,30.19,NNE,26,2.0,7.0,86,0.00,,,0.00,WeatherCatV1.10B1784,2013-02-07 22:13:00,
2013-02-07 16:18:00,27.9,24.3,30.19,NNW,342,0.0,3.0,86,0.00,,,0.00,WeatherCatV1.10B1784,2013-02-07 22:18:00,
2013-02-07 16:23:00,27.9,24.3,30.19,NNW,337,0.0,4.0,86,0.00,,,0.00,WeatherCatV1.10B1784,2013-02-07 22:23:00,
2013-02-07 16:28:00,27.9,24.3,30.19,NW,312,1.0,3.0,86,0.00,,,0.00,WeatherCatV1.10B1784,2013-02-07 22:28:00,
2013-02-07 16:33:00,27.8,24.2,30.19,North,355,4.0,4.0,86,0.00,,,0.00,WeatherCatV1.10B1784,2013-02-07 22:33:00,
2013-02-07 16:38:00,27.6,24.0,30.19,North,0,1.0,4.0,86,0.00,,,0.00,WeatherCatV1.10B1784,2013-02-07 22:38:00,
2013-02-07 16:43:00,27.5,23.9,30.19,NNW,344,2.0,6.0,86,0.00,,,0.00,WeatherCatV1.10B1784,2013-02-07 22:43:00,
2013-02-07 16:48:00,27.5,23.9,30.20,NW,308,0.0,6.0,86,0.00,,,0.00,WeatherCatV1.10B1784,2013-02-07 22:48:00,
2013-02-07 16:53:00,27.5,24.1,30.20,NNE,20,0.0,3.0,87,0.00,,,0.00,WeatherCatV1.10B1784,2013-02-07 22:53:00,
2013-02-07 16:58:00,27.5,24.1,30.20,NNE,16,0.0,3.0,87,0.00,,,0.00,WeatherCatV1.10B1784,2013-02-07 22:58:00,
2013-02-07 17:03:00,27.5,24.1,30.20,NW,324,1.0,4.0,87,0.00,,,0.00,WeatherCatV1.10B1784,2013-02-07 23:03:00,
2013-02-07 17:08:00,27.3,23.7,30.20,NNW,330,2.0,5.0,86,0.00,,,0.00,WeatherCatV1.10B1784,2013-02-07 23:08:00,
2013-02-07 17:13:00,27.2,23.6,30.20,NNW,335,1.0,4.0,86,0.00,,,0.00,WeatherCatV1.10B1784,2013-02-07 23:13:00,
2013-02-07 17:18:00,27.2,23.9,30.21,NNW,343,1.0,4.0,87,0.00,,,0.00,WeatherCatV1.10B1784,2013-02-07 23:18:00,
2013-02-07 17:23:00,27.2,23.9,30.21,NNW,338,0.0,2.0,87,0.00,,,0.00,WeatherCatV1.10B1784,2013-02-07 23:23:00,
2013-02-07 17:28:00,27.1,23.5,30.21,WNW,291,1.0,5.0,86,0.00,,,0.00,WeatherCatV1.10B1784,2013-02-07 23:28:00,
2013-02-07 17:33:00,27.0,23.7,30.22,NW,313,0.0,4.0,87,0.00,,,0.00,WeatherCatV1.10B1784,2013-02-07 23:33:00,
2013-02-07 17:38:00,26.9,23.6,30.22,NNW,339,1.0,4.0,87,0.00,,,0.00,WeatherCatV1.10B1784,2013-02-07 23:38:00,
2013-02-07 17:43:00,26.9,23.6,30.22,NW,308,2.0,4.0,87,0.00,,,0.00,WeatherCatV1.10B1784,2013-02-07 23:43:00,
2013-02-07 17:48:00,26.8,23.5,30.22,NW,320,1.0,3.0,87,0.00,,,0.00,WeatherCatV1.10B1784,2013-02-07 23:48:00,
2013-02-07 17:53:00,26.7,23.4,30.22,NW,305,3.0,4.0,87,0.00,,,0.00,WeatherCatV1.10B1784,2013-02-07 23:53:00,
2013-02-07 17:58:00,26.7,23.4,30.22,North,356,1.0,3.0,87,0.00,,,0.00,WeatherCatV1.10B1784,2013-02-07 23:58:00,
2013-02-07 18:03:00,26.7,23.4,30.23,North,5,0.0,3.0,87,0.00,,,0.00,WeatherCatV1.10B1784,2013-02-08 00:03:00,
2013-02-07 18:08:00,26.7,23.4,30.23,NNW,331,3.0,4.0,87,0.00,,,0.00,WeatherCatV1.10B1784,2013-02-08 00:08:00,
2013-02-07 18:13:00,26.6,23.3,30.23,NNW,341,0.0,3.0,87,0.00,,,0.00,WeatherCatV1.10B1784,2013-02-08 00:13:00,
2013-02-07 18:18:00,26.6,23.3,30.24,North,349,0.0,1.0,87,0.00,,,0.00,WeatherCatV1.10B1784,2013-02-08 00:18:00,
2013-02-07 18:23:00,26.6,23.5,30.24,North,350,2.0,4.0,88,0.00,,,0.00,WeatherCatV1.10B1784,2013-02-08 00:23:00,
2013-02-07 18:28:00,26.6,23.5,30.24,NNW,343,0.0,4.0,88,0.00,,,0.00,WeatherCatV1.10B1784,2013-02-08 00:28:00,
2013-02-07 18:33:00,26.6,23.5,30.24,NNW,347,0.0,0.0,88,0.00,,,0.00,WeatherCatV1.10B1784,2013-02-08 00:33:00,
2013-02-07 18:38:00,26.6,23.5,30.24,North,10,0.0,3.0,88,0.00,,,0.00,WeatherCatV1.10B1784,2013-02-08 00:38:00,
2013-02-07 18:43:00,26.5,23.4,30.24,NNW,335,0.0,4.0,88,0.00,,,0.00,WeatherCatV1.10B1784,2013-02-08 00:43:00,
2013-02-07 18:48:00,26.5,23.4,30.24,NW,326,1.0,3.0,88,0.00,,,0.00,WeatherCatV1.10B1784,2013-02-08 00:48:00,
2013-02-07 18:53:00,26.4,23.3,30.24,NW,305,0.0,4.0,88,0.00,,,0.00,WeatherCatV1.10B1784,2013-02-08 00:53:00,
2013-02-07 18:58:00,26.3,23.2,30.24,NW,321,0.0,4.0,88,0.00,,,0.00,WeatherCatV1.10B1784,2013-02-08 00:58:00,
2013-02-07 19:03:00,26.3,23.2,30.25,NNW,345,1.0,3.0,88,0.00,,,0.00,WeatherCatV1.10B1784,2013-02-08 01:03:00,
2013-02-07 19:08:00,26.3,23.2,30.25,NNW,336,1.0,3.0,88,0.00,,,0.00,WeatherCatV1.10B1784,2013-02-08 01:08:00,
2013-02-07 19:13:00,26.3,23.2,30.25,North,0,0.0,2.0,88,0.00,,,0.00,WeatherCatV1.10B1784,2013-02-08 01:13:00,
2013-02-07 19:18:00,26.2,23.1,30.25,North,349,0.0,2.0,88,0.00,,,0.00,WeatherCatV1.10B1784,2013-02-08 01:18:00,
2013-02-07 19:23:00,26.2,23.1,30.25,North,350,0.0,2.0,88,0.00,,,0.00,WeatherCatV1.10B1784,2013-02-08 01:23:00,
2013-02-07 19:28:00,26.2,23.1,30.26,NW,317,0.0,3.0,88,0.00,,,0.00,WeatherCatV1.10B1784,2013-02-08 01:28:00,
2013-02-07 19:33:00,26.1,23.0,30.26,NW,321,0.0,3.0,88,0.00,,,0.00,WeatherCatV1.10B1784,2013-02-08 01:33:00,
2013-02-07 19:38:00,26.1,23.0,30.26,NW,321,1.0,2.0,88,0.00,,,0.00,WeatherCatV1.10B1784,2013-02-08 01:38:00,
2013-02-07 19:43:00,26.0,22.9,30.26,NW,321,2.0,2.0,88,0.00,,,0.00,WeatherCatV1.10B1784,2013-02-08 01:43:00,
2013-02-07 19:48:00,26.0,22.9,30.26,North,0,0.0,1.0,88,0.00,,,0.00,WeatherCatV1.10B1784,2013-02-08 01:48:00,
2013-02-07 19:53:00,25.9,22.8,30.26,NNW,347,2.0,4.0,88,0.00,,,0.00,WeatherCatV1.10B1784,2013-02-08 01:53:00,
2013-02-07 19:58:00,25.9,22.8,30.26,NNW,345,0.0,4.0,88,0.00,,,0.00,WeatherCatV1.10B1784,2013-02-08 01:58:00,
2013-02-07 20:03:00,25.8,22.7,30.26,NNW,340,0.0,2.0,88,0.00,,,0.00,WeatherCatV1.10B1784,2013-02-08 02:03:00,
2013-02-07 20:08:00,25.8,22.7,30.26,NNW,343,0.0,3.0,88,0.00,,,0.00,WeatherCatV1.10B1784,2013-02-08 02:08:00,
2013-02-07 20:13:00,25.7,22.6,30.26,NE,37,1.0,2.0,88,0.00,,,0.00,WeatherCatV1.10B1784,2013-02-08 02:13:00,
2013-02-07 20:18:00,25.6,22.5,30.26,NNE,24,1.0,2.0,88,0.00,,,0.00,WeatherCatV1.10B1784,2013-02-08 02:18:00,
2013-02-07 20:23:00,25.6,22.5,30.27,North,353,1.0,2.0,88,0.00,,,0.00,WeatherCatV1.10B1784,2013-02-08 02:23:00,
2013-02-07 20:28:00,25.5,22.5,30.27,NNE,14,0.0,1.0,88,0.00,,,0.00,WeatherCatV1.10B1784,2013-02-08 02:28:00,
2013-02-07 20:33:00,25.5,22.5,30.27,North,356,0.0,3.0,88,0.00,,,0.00,WeatherCatV1.10B1784,2013-02-08 02:33:00,
2013-02-07 20:38:00,25.5,22.5,30.27,NNE,32,2.0,2.0,88,0.00,,,0.00,WeatherCatV1.10B1784,2013-02-08 02:38:00,
2013-02-07 20:43:00,25.4,22.4,30.27,NNE,32,1.0,1.0,88,0.00,,,0.00,WeatherCatV1.10B1784,2013-02-08 02:43:00,
2013-02-07 20:48:00,25.3,22.3,30.27,NNW,329,2.0,3.0,88,0.00,,,0.00,WeatherCatV1.10B1784,2013-02-08 02:48:00,
2013-02-07 20:53:00,25.3,22.3,30.27,North,353,1.0,3.0,88,0.00,,,0.00,WeatherCatV1.10B1784,2013-02-08 02:53:00,
2013-02-07 20:58:00,25.2,22.4,30.27,NNW,345,0.0,2.0,89,0.00,,,0.00,WeatherCatV1.10B1784,2013-02-08 02:58:00,
2013-02-07 21:03:00,25.2,22.4,30.27,North,349,0.0,3.0,89,0.00,,,0.00,WeatherCatV1.10B1784,2013-02-08 03:03:00,
2013-02-07 21:08:00,25.2,22.4,30.27,ENE,69,0.0,3.0,89,0.00,,,0.00,WeatherCatV1.10B1784,2013-02-08 03:08:00,
2013-02-07 21:13:00,25.1,22.3,30.28,ENE,69,0.0,4.0,89,0.00,,,0.00,WeatherCatV1.10B1784,2013-02-08 03:13:00,
2013-02-07 21:18:00,25.0,22.2,30.28,ENE,64,2.0,4.0,89,0.00,,,0.00,WeatherCatV1.10B1784,2013-02-08 03:18:00,
2013-02-07 21:23:00,24.9,22.1,30.28,ENE,64,0.0,1.0,89,0.00,,,0.00,WeatherCatV1.10B1784,2013-02-08 03:23:00,
2013-02-07 21:28:00,24.9,22.1,30.28,ENE,64,0.0,2.0,89,0.00,,,0.00,WeatherCatV1.10B1784,2013-02-08 03:28:00,
2013-02-07 21:33:00,24.9,22.1,30.28,ENE,63,0.0,1.0,89,0.00,,,0.00,WeatherCatV1.10B1784,2013-02-08 03:33:00,
2013-02-07 21:38:00,24.8,22.0,30.28,ENE,64,0.0,3.0,89,0.00,,,0.00,WeatherCatV1.10B1784,2013-02-08 03:38:00,
2013-02-07 21:43:00,24.7,22.2,30.28,ENE,63,1.0,1.0,90,0.00,,,0.00,WeatherCatV1.10B1784,2013-02-08 03:43:00,
2013-02-07 21:48:00,24.7,22.2,30.28,ENE,63,0.0,2.0,90,0.00,,,0.00,WeatherCatV1.10B1784,2013-02-08 03:48:00,
2013-02-07 21:53:00,24.7,22.2,30.27,ENE,63,0.0,3.0,90,0.00,,,0.00,WeatherCatV1.10B1784,2013-02-08 03:53:00,
2013-02-07 21:58:00,24.7,22.2,30.28,ENE,63,1.0,1.0,90,0.00,,,0.00,WeatherCatV1.10B1784,2013-02-08 03:58:00,
2013-02-07 22:03:00,24.6,21.8,30.28,East,93,1.0,1.0,89,0.00,,,0.00,WeatherCatV1.10B1784,2013-02-08 04:03:00,
2013-02-07 22:08:00,24.5,21.7,30.28,East,93,2.0,5.0,89,0.00,,,0.00,WeatherCatV1.10B1784,2013-02-08 04:08:00,
2013-02-07 22:13:00,24.4,21.4,30.28,East,93,0.0,0.0,88,0.00,,,0.00,WeatherCatV1.10B1784,2013-02-08 04:13:00,
2013-02-07 22:18:00,24.3,21.5,30.28,East,90,0.0,1.0,89,0.00,,,0.00,WeatherCatV1.10B1784,2013-02-08 04:18:00,
2013-02-07 22:23:00,24.3,21.5,30.28,East,89,1.0,2.0,89,0.00,,,0.00,WeatherCatV1.10B1784,2013-02-08 04:23:00,
2013-02-07 22:28:00,24.2,21.4,30.28,East,89,5.0,5.0,89,0.00,,,0.00,WeatherCatV1.10B1784,2013-02-08 04:28:00,
2013-02-07 22:33:00,24.0,21.2,30.28,NNW,336,2.0,3.0,89,0.00,,,0.00,WeatherCatV1.10B1784,2013-02-08 04:33:00,
2013-02-07 22:38:00,24.0,21.2,30.28,NNW,341,0.0,0.0,89,0.00,,,0.00,WeatherCatV1.10B1784,2013-02-08 04:38:00,
2013-02-07 22:43:00,23.9,21.1,30.28,NNW,341,0.0,1.0,89,0.00,,,0.00,WeatherCatV1.10B1784,2013-02-08 04:43:00,
2013-02-07 22:48:00,23.9,21.1,30.28,ENE,63,1.0,3.0,89,0.00,,,0.00,WeatherCatV1.10B1784,2013-02-08 04:48:00,
2013-02-07 22:53:00,23.8,21.0,30.28,ENE,63,1.0,1.0,89,0.00,,,0.00,WeatherCatV1.10B1784,2013-02-08 04:53:00,
2013-02-07 22:58:00,23.8,21.0,30.28,ENE,63,1.0,1.0,89,0.00,,,0.00,WeatherCatV1.10B1784,2013-02-08 04:58:00,
2013-02-07 23:00:00,23.7,20.9,30.29,ENE,63,0.0,1.0,89,0.00,,,0.00,WeatherCatV1.10B1784,2013-02-08 05:00:00,
2013-02-07 23:05:00,23.6,20.8,30.29,ENE,63,0.0,1.0,89,0.00,,,0.00,WeatherCatV1.10B1784,2013-02-08 05:05:00,
2013-02-07 23:10:00,23.5,20.7,30.29,ENE,63,0.0,1.0,89,0.00,,,0.00,WeatherCatV1.10B1784,2013-02-08 05:10:00,
2013-02-07 23:15:00,23.5,20.7,30.29,ENE,63,0.0,0.0,89,0.00,,,0.00,WeatherCatV1.10B1784,2013-02-08 05:15:00,
2013-02-07 23:20:00,23.4,20.6,30.29,ENE,63,0.0,0.0,89,0.00,,,0.00,WeatherCatV1.10B1784,2013-02-08 05:20:00,
2013-02-07 23:25:00,23.3,20.5,30.29,ENE,63,0.0,0.0,89,0.00,,,0.00,WeatherCatV1.10B1784,2013-02-08 05:25:00,
2013-02-07 23:30:00,23.2,20.7,30.30,ENE,62,0.0,1.0,90,0.00,,,0.00,WeatherCatV1.10B1784,2013-02-08 05:30:00,
2013-02-07 23:35:00,23.2,20.7,30.30,East,97,1.0,1.0,90,0.00,,,0.00,WeatherCatV1.10B1784,2013-02-08 05:35:00,
2013-02-07 23:40:00,23.1,20.6,30.31,East,97,0.0,1.0,90,0.00,,,0.00,WeatherCatV1.10B1784,2013-02-08 05:40:00,
2013-02-07 23:45:00,23.1,20.6,30.31,East,97,0.0,1.0,90,0.00,,,0.00,WeatherCatV1.10B1784,2013-02-08 05:45:00,
2013-02-07 23:50:00,23.0,20.5,30.31,East,97,0.0,2.0,90,0.00,,,0.00,WeatherCatV1.10B1784,2013-02-08 05:50:00,
2013-02-07 23:55:00,22.8,20.3,30.31,East,97,0.0,0.0,90,0.00,,,0.00,WeatherCatV1.10B1784,2013-02-08 05:55:00,